sensor_id;sensor_type;location;lat;lon;timestamp;pressure;altitude;pressure_sealevel;temperature;humidity
5780;BME280;2916;49.798;10.022;2023-05-01T00:01:53;146540.84;;;9.11;74.56
5780;BME280;2916;49.798;10.022;2023-05-01T00:04:22;146530.91;;;9.07;74.68
5780;BME280;2916;49.798;10.022;2023-05-01T00:06:49;146519.75;;;9.02;74.50
5780;BME280;2916;49.798;10.022;2023-05-01T00:09:16;146502.41;;;8.95;74.57
5780;BME280;2916;49.798;10.022;2023-05-01T00:11:44;146496.25;;;8.93;75.31
5780;BME280;2916;49.798;10.022;2023-05-01T00:14:11;146498.69;;;8.94;75.30
5780;BME280;2916;49.798;10.022;2023-05-01T00:16:39;146472.66;;;8.83;75.92
5780;BME280;2916;49.798;10.022;2023-05-01T00:19:06;146476.41;;;8.84;75.63
5780;BME280;2916;49.798;10.022;2023-05-01T00:21:35;146461.50;;;8.78;75.71
5780;BME280;2916;49.798;10.022;2023-05-01T00:24:02;146461.50;;;8.78;75.23
5780;BME280;2916;49.798;10.022;2023-05-01T00:26:29;146456.59;;;8.76;76.00
5780;BME280;2916;49.798;10.022;2023-05-01T00:28:56;146444.16;;;8.71;75.65
5780;BME280;2916;49.798;10.022;2023-05-01T00:31:24;146436.72;;;8.68;75.60
5780;BME280;2916;49.798;10.022;2023-05-01T00:33:51;146429.31;;;8.65;75.62
5780;BME280;2916;49.798;10.022;2023-05-01T00:36:18;146419.41;;;8.61;75.94
5780;BME280;2916;49.798;10.022;2023-05-01T00:38:47;146434.25;;;8.67;76.23
5780;BME280;2916;49.798;10.022;2023-05-01T00:41:14;146441.69;;;8.70;75.95
5780;BME280;2916;49.798;10.022;2023-05-01T00:43:41;146447.91;;;8.73;74.96
5780;BME280;2916;49.798;10.022;2023-05-01T00:46:09;146466.50;;;8.80;75.84
5780;BME280;2916;49.798;10.022;2023-05-01T00:48:36;146456.59;;;8.76;75.98
5780;BME280;2916;49.798;10.022;2023-05-01T00:51:06;146361.16;;;8.37;75.99
5780;BME280;2916;49.798;10.022;2023-05-01T00:53:34;146440.47;;;8.70;75.49
5780;BME280;2916;49.798;10.022;2023-05-01T00:56:03;146275.63;;;8.02;75.46
5780;BME280;2916;49.798;10.022;2023-05-01T00:58:30;146429.31;;;8.65;75.43
5780;BME280;2916;49.798;10.022;2023-05-01T01:00:58;146404.50;;;8.55;75.72
5780;BME280;2916;49.798;10.022;2023-05-01T01:03:26;146414.41;;;8.59;76.20
5780;BME280;2916;49.798;10.022;2023-05-01T01:06:02;146416.88;;;8.60;75.67
5780;BME280;2916;49.798;10.022;2023-05-01T01:08:39;146284.28;;;8.05;75.43
5780;BME280;2916;49.798;10.022;2023-05-01T01:11:18;146392.13;;;8.50;75.84
5780;BME280;2916;49.798;10.022;2023-05-01T01:13:55;146410.72;;;8.57;75.87
5780;BME280;2916;49.798;10.022;2023-05-01T01:16:32;146436.72;;;8.68;75.44
5780;BME280;2916;49.798;10.022;2023-05-01T01:19:33;146421.88;;;8.62;75.65
5780;BME280;2916;49.798;10.022;2023-05-01T01:22:13;146402.03;;;8.54;75.52
5780;BME280;2916;49.798;10.022;2023-05-01T01:25:03;146421.88;;;8.62;75.39
5780;BME280;2916;49.798;10.022;2023-05-01T01:28:09;146423.09;;;8.63;75.47
5780;BME280;2916;49.798;10.022;2023-05-01T01:31:08;146398.28;;;8.52;75.72
5780;BME280;2916;49.798;10.022;2023-05-01T01:34:12;146393.38;;;8.50;75.60
5780;BME280;2916;49.798;10.022;2023-05-01T01:36:48;146385.91;;;8.47;75.56
5780;BME280;2916;49.798;10.022;2023-05-01T01:39:29;146414.41;;;8.59;75.33
5780;BME280;2916;49.798;10.022;2023-05-01T01:42:05;146414.41;;;8.59;75.38
5780;BME280;2916;49.798;10.022;2023-05-01T01:44:40;146403.28;;;8.54;75.48
5780;BME280;2916;49.798;10.022;2023-05-01T01:47:11;146413.19;;;8.58;75.50
5780;BME280;2916;49.798;10.022;2023-05-01T01:49:47;146409.50;;;8.57;75.56
5780;BME280;2916;49.798;10.022;2023-05-01T01:52:17;146410.72;;;8.57;74.97
5780;BME280;2916;49.798;10.022;2023-05-01T01:54:52;146310.28;;;8.16;75.35
5780;BME280;2916;49.798;10.022;2023-05-01T01:57:23;146351.16;;;8.33;75.66
5780;BME280;2916;49.798;10.022;2023-05-01T01:59:54;146395.84;;;8.51;76.03
5780;BME280;2916;49.798;10.022;2023-05-01T02:02:22;146379.72;;;8.45;75.74
5780;BME280;2916;49.798;10.022;2023-05-01T02:04:54;146377.25;;;8.44;75.87
5780;BME280;2916;49.798;10.022;2023-05-01T02:07:24;146361.16;;;8.37;76.00
5780;BME280;2916;49.798;10.022;2023-05-01T02:09:54;146361.16;;;8.37;76.28
5780;BME280;2916;49.798;10.022;2023-05-01T02:12:25;146317.75;;;8.19;76.92
5780;BME280;2916;49.798;10.022;2023-05-01T02:14:54;146352.44;;;8.33;76.86
5780;BME280;2916;49.798;10.022;2023-05-01T02:17:23;146351.16;;;8.33;76.61
5780;BME280;2916;49.798;10.022;2023-05-01T02:19:54;146322.66;;;8.21;77.74
5780;BME280;2916;49.798;10.022;2023-05-01T02:22:24;146340.03;;;8.28;77.07
5780;BME280;2916;49.798;10.022;2023-05-01T02:24:53;146231.03;;;7.83;77.17
5780;BME280;2916;49.798;10.022;2023-05-01T02:27:29;146300.38;;;8.12;78.81
5780;BME280;2916;49.798;10.022;2023-05-01T02:29:58;146302.84;;;8.13;77.93
5780;BME280;2916;49.798;10.022;2023-05-01T02:32:25;146305.38;;;8.14;77.66
5780;BME280;2916;49.798;10.022;2023-05-01T02:34:54;146289.25;;;8.07;78.11
5780;BME280;2916;49.798;10.022;2023-05-01T02:37:22;146302.84;;;8.13;77.79
5780;BME280;2916;49.798;10.022;2023-05-01T02:39:49;146302.84;;;8.13;77.38
5780;BME280;2916;49.798;10.022;2023-05-01T02:42:21;146292.94;;;8.09;78.62
5780;BME280;2916;49.798;10.022;2023-05-01T02:44:55;146263.22;;;7.97;79.60
5780;BME280;2916;49.798;10.022;2023-05-01T02:47:26;146249.63;;;7.91;80.04
5780;BME280;2916;49.798;10.022;2023-05-01T02:49:56;146234.72;;;7.85;78.93
5780;BME280;2916;49.798;10.022;2023-05-01T02:52:25;146255.78;;;7.94;78.79
5780;BME280;2916;49.798;10.022;2023-05-01T02:54:54;146260.75;;;7.96;78.99
5780;BME280;2916;49.798;10.022;2023-05-01T02:57:22;146243.41;;;7.88;79.60
5780;BME280;2916;49.798;10.022;2023-05-01T02:59:49;146231.03;;;7.83;79.16
5780;BME280;2916;49.798;10.022;2023-05-01T03:02:17;146221.13;;;7.79;79.49
5780;BME280;2916;49.798;10.022;2023-05-01T03:04:44;146193.88;;;7.68;80.03
5780;BME280;2916;49.798;10.022;2023-05-01T03:07:13;146181.50;;;7.63;79.88
5780;BME280;2916;49.798;10.022;2023-05-01T03:09:40;146191.41;;;7.67;80.68
5780;BME280;2916;49.798;10.022;2023-05-01T03:12:07;146193.88;;;7.68;80.27
5780;BME280;2916;49.798;10.022;2023-05-01T03:14:34;146196.34;;;7.69;80.22
5780;BME280;2916;49.798;10.022;2023-05-01T03:17:02;146207.47;;;7.74;80.17
5780;BME280;2916;49.798;10.022;2023-05-01T03:19:29;146211.22;;;7.75;80.16
5780;BME280;2916;49.798;10.022;2023-05-01T03:21:56;146219.91;;;7.79;80.07
5780;BME280;2916;49.798;10.022;2023-05-01T03:24:25;146207.47;;;7.74;80.70
5780;BME280;2916;49.798;10.022;2023-05-01T03:26:53;146196.34;;;7.69;80.08
5780;BME280;2916;49.798;10.022;2023-05-01T03:29:20;146185.19;;;7.65;79.70
5780;BME280;2916;49.798;10.022;2023-05-01T03:31:47;146161.69;;;7.55;80.29
5780;BME280;2916;49.798;10.022;2023-05-01T03:34:14;146067.59;;;7.16;80.36
5780;BME280;2916;49.798;10.022;2023-05-01T03:36:42;146139.38;;;7.46;80.41
5780;BME280;2916;49.798;10.022;2023-05-01T03:39:09;146125.78;;;7.40;80.33
5780;BME280;2916;49.798;10.022;2023-05-01T03:41:38;146102.22;;;7.30;81.00
5780;BME280;2916;49.798;10.022;2023-05-01T03:44:05;146113.41;;;7.35;81.29
5780;BME280;2916;49.798;10.022;2023-05-01T03:46:32;146075.03;;;7.19;80.75
5780;BME280;2916;49.798;10.022;2023-05-01T03:48:59;146105.97;;;7.32;81.04
5780;BME280;2916;49.798;10.022;2023-05-01T03:51:26;146083.66;;;7.23;81.85
5780;BME280;2916;49.798;10.022;2023-05-01T03:53:54;146104.75;;;7.31;81.23
5780;BME280;2916;49.798;10.022;2023-05-01T03:56:24;146089.88;;;7.25;81.60
5780;BME280;2916;49.798;10.022;2023-05-01T03:58:52;146075.03;;;7.19;82.17
5780;BME280;2916;49.798;10.022;2023-05-01T04:01:20;146096.06;;;7.28;81.64
5780;BME280;2916;49.798;10.022;2023-05-01T04:03:47;146079.97;;;7.21;81.78
5780;BME280;2916;49.798;10.022;2023-05-01T04:06:14;146094.84;;;7.27;82.07
5780;BME280;2916;49.798;10.022;2023-05-01T04:08:41;146094.84;;;7.27;82.33
5780;BME280;2916;49.798;10.022;2023-05-01T04:11:09;146110.91;;;7.34;82.07
5780;BME280;2916;49.798;10.022;2023-05-01T04:13:36;146110.91;;;7.34;81.86
5780;BME280;2916;49.798;10.022;2023-05-01T04:16:06;146094.84;;;7.27;82.02
5780;BME280;2916;49.798;10.022;2023-05-01T04:18:33;146092.34;;;7.26;82.31
5780;BME280;2916;49.798;10.022;2023-05-01T04:21:00;146070.06;;;7.17;82.74
5780;BME280;2916;49.798;10.022;2023-05-01T04:23:28;146072.53;;;7.18;82.82
5780;BME280;2916;49.798;10.022;2023-05-01T04:25:56;146092.34;;;7.26;83.10
5780;BME280;2916;49.798;10.022;2023-05-01T04:28:23;146075.03;;;7.19;82.89
5780;BME280;2916;49.798;10.022;2023-05-01T04:30:50;146094.84;;;7.27;83.35
5780;BME280;2916;49.798;10.022;2023-05-01T04:33:19;146089.88;;;7.25;83.07
5780;BME280;2916;49.798;10.022;2023-05-01T04:35:46;146113.41;;;7.35;83.38
5780;BME280;2916;49.798;10.022;2023-05-01T04:38:13;146079.97;;;7.21;82.26
5780;BME280;2916;49.798;10.022;2023-05-01T04:40:40;146127.00;;;7.41;82.70
5780;BME280;2916;49.798;10.022;2023-05-01T04:43:07;146155.50;;;7.52;82.54
5780;BME280;2916;49.798;10.022;2023-05-01T04:45:37;146164.16;;;7.56;82.21
5780;BME280;2916;49.798;10.022;2023-05-01T04:48:05;146171.59;;;7.59;82.20
5780;BME280;2916;49.798;10.022;2023-05-01T04:50:33;146151.78;;;7.51;82.78
5780;BME280;2916;49.798;10.022;2023-05-01T04:53:01;146191.41;;;7.67;83.13
5780;BME280;2916;49.798;10.022;2023-05-01T04:55:28;146218.66;;;7.78;82.92
5780;BME280;2916;49.798;10.022;2023-05-01T04:57:55;146238.47;;;7.86;82.86
5780;BME280;2916;49.798;10.022;2023-05-01T05:00:23;146263.22;;;7.97;83.46
5780;BME280;2916;49.798;10.022;2023-05-01T05:02:52;146198.81;;;7.70;82.72
5780;BME280;2916;49.798;10.022;2023-05-01T05:05:20;146260.75;;;7.96;82.84
5780;BME280;2916;49.798;10.022;2023-05-01T05:07:48;146284.28;;;8.05;82.47
5780;BME280;2916;49.798;10.022;2023-05-01T05:10:15;146274.34;;;8.01;81.97
5780;BME280;2916;49.798;10.022;2023-05-01T05:12:43;146323.94;;;8.22;81.74
5780;BME280;2916;49.798;10.022;2023-05-01T05:15:10;146318.97;;;8.20;81.89
5780;BME280;2916;49.798;10.022;2023-05-01T05:17:37;146373.53;;;8.42;82.19
5780;BME280;2916;49.798;10.022;2023-05-01T05:20:07;146399.56;;;8.53;82.06
5780;BME280;2916;49.798;10.022;2023-05-01T05:22:35;146415.66;;;8.59;80.62
5780;BME280;2916;49.798;10.022;2023-05-01T05:25:05;146462.75;;;8.79;80.23
5780;BME280;2916;49.798;10.022;2023-05-01T05:27:32;146498.69;;;8.94;80.33
5780;BME280;2916;49.798;10.022;2023-05-01T05:30:03;146402.03;;;8.54;78.82
5780;BME280;2916;49.798;10.022;2023-05-01T05:32:31;146600.38;;;9.36;79.15
5780;BME280;2916;49.798;10.022;2023-05-01T05:34:59;146640.03;;;9.52;77.03
5780;BME280;2916;49.798;10.022;2023-05-01T05:37:26;146631.34;;;9.48;75.84
5780;BME280;2916;49.798;10.022;2023-05-01T05:39:53;146664.81;;;9.62;75.87
5780;BME280;2916;49.798;10.022;2023-05-01T05:42:22;146709.47;;;9.80;75.63
5780;BME280;2916;49.798;10.022;2023-05-01T05:44:49;146710.72;;;9.81;75.34
5780;BME280;2916;49.798;10.022;2023-05-01T05:47:17;146704.50;;;9.78;74.94
5780;BME280;2916;49.798;10.022;2023-05-01T05:49:44;146697.09;;;9.75;75.01
5780;BME280;2916;49.798;10.022;2023-05-01T05:52:11;146671.03;;;9.65;75.14
5780;BME280;2916;49.798;10.022;2023-05-01T05:54:39;146729.31;;;9.89;75.60
5780;BME280;2916;49.798;10.022;2023-05-01T05:57:06;146770.25;;;10.05;75.37
5780;BME280;2916;49.798;10.022;2023-05-01T05:59:35;146868.34;;;10.46;74.67
5780;BME280;2916;49.798;10.022;2023-05-01T06:02:02;146885.66;;;10.53;73.55
5780;BME280;2916;49.798;10.022;2023-05-01T06:04:29;146881.97;;;10.51;73.16
5780;BME280;2916;49.798;10.022;2023-05-01T06:06:57;146966.38;;;10.86;72.93
5780;BME280;2916;49.798;10.022;2023-05-01T06:09:25;146989.94;;;10.96;72.35
5780;BME280;2916;49.798;10.022;2023-05-01T06:11:52;147065.66;;;11.27;71.64
5780;BME280;2916;49.798;10.022;2023-05-01T06:14:19;147111.59;;;11.46;70.50
5780;BME280;2916;49.798;10.022;2023-05-01T06:16:48;147102.91;;;11.42;68.94
5780;BME280;2916;49.798;10.022;2023-05-01T06:19:15;147106.66;;;11.44;69.22
5780;BME280;2916;49.798;10.022;2023-05-01T06:21:42;147138.94;;;11.57;69.22
5780;BME280;2916;49.798;10.022;2023-05-01T06:24:10;147188.59;;;11.77;68.32
5780;BME280;2916;49.798;10.022;2023-05-01T06:26:37;147254.47;;;12.04;67.86
5780;BME280;2916;49.798;10.022;2023-05-01T06:29:04;147325.28;;;12.34;66.97
5780;BME280;2916;49.798;10.022;2023-05-01T06:31:32;147419.72;;;12.72;65.16
5780;BME280;2916;49.798;10.022;2023-05-01T06:34:01;147455.78;;;12.87;65.21
5780;BME280;2916;49.798;10.022;2023-05-01T06:36:28;147626.16;;;13.57;63.56
5780;BME280;2916;49.798;10.022;2023-05-01T06:38:56;147670.94;;;13.75;63.26
5780;BME280;2916;49.798;10.022;2023-05-01T06:41:23;147588.84;;;13.42;62.71
5780;BME280;2916;49.798;10.022;2023-05-01T06:43:51;147728.16;;;13.99;62.17
5780;BME280;2916;49.798;10.022;2023-05-01T06:46:18;147770.44;;;14.16;60.71
5780;BME280;2916;49.798;10.022;2023-05-01T06:48:46;147837.59;;;14.44;61.11
5780;BME280;2916;49.798;10.022;2023-05-01T06:51:15;147772.91;;;14.17;61.24
5780;BME280;2916;49.798;10.022;2023-05-01T06:53:42;147735.56;;;14.02;60.74
5780;BME280;2916;49.798;10.022;2023-05-01T06:56:09;147566.47;;;13.33;62.72
5780;BME280;2916;49.798;10.022;2023-05-01T06:58:36;147652.28;;;13.68;63.19
5780;BME280;2916;49.798;10.022;2023-05-01T07:01:04;147606.25;;;13.49;62.63
5780;BME280;2916;49.798;10.022;2023-05-01T07:03:31;147692.06;;;13.84;58.43
5780;BME280;2916;49.798;10.022;2023-05-01T07:05:58;147628.63;;;13.58;58.25
5780;BME280;2916;49.798;10.022;2023-05-01T07:08:26;147810.22;;;14.33;58.82
5780;BME280;2916;49.798;10.022;2023-05-01T07:10:54;147779.13;;;14.20;56.95
5780;BME280;2916;49.798;10.022;2023-05-01T07:13:21;147883.69;;;14.63;58.21
5780;BME280;2916;49.798;10.022;2023-05-01T07:15:49;147912.31;;;14.75;57.31
5780;BME280;2916;49.798;10.022;2023-05-01T07:18:17;147762.94;;;14.13;57.08
5780;BME280;2916;49.798;10.022;2023-05-01T07:20:44;147705.72;;;13.90;57.12
5780;BME280;2916;49.798;10.022;2023-05-01T07:23:12;147781.59;;;14.21;58.60
5780;BME280;2916;49.798;10.022;2023-05-01T07:25:40;147897.38;;;14.68;56.87
5780;BME280;2916;49.798;10.022;2023-05-01T07:28:09;147847.56;;;14.48;56.42
5780;BME280;2916;49.798;10.022;2023-05-01T07:30:36;147902.38;;;14.70;56.92
5780;BME280;2916;49.798;10.022;2023-05-01T07:33:03;147902.38;;;14.70;56.62
5780;BME280;2916;49.798;10.022;2023-05-01T07:35:31;147830.13;;;14.41;57.01
5780;BME280;2916;49.798;10.022;2023-05-01T07:37:58;147904.84;;;14.71;58.70
5780;BME280;2916;49.798;10.022;2023-05-01T07:40:25;147958.38;;;14.93;58.00
5780;BME280;2916;49.798;10.022;2023-05-01T07:42:54;147944.66;;;14.88;58.16
5780;BME280;2916;49.798;10.022;2023-05-01T07:45:21;147907.31;;;14.72;57.76
5780;BME280;2916;49.798;10.022;2023-05-01T07:47:48;147948.38;;;14.89;58.31
5780;BME280;2916;49.798;10.022;2023-05-01T07:50:17;147934.72;;;14.84;55.90
5780;BME280;2916;49.798;10.022;2023-05-01T07:52:44;148001.91;;;15.11;56.85
5780;BME280;2916;49.798;10.022;2023-05-01T07:55:11;148011.88;;;15.15;58.21
5780;BME280;2916;49.798;10.022;2023-05-01T07:57:39;147889.91;;;14.65;54.41
5780;BME280;2916;49.798;10.022;2023-05-01T08:00:09;148004.41;;;15.12;55.29
5780;BME280;2916;49.798;10.022;2023-05-01T08:02:36;147954.63;;;14.92;53.95
5780;BME280;2916;49.798;10.022;2023-05-01T08:05:05;147792.78;;;14.25;55.02
5780;BME280;2916;49.798;10.022;2023-05-01T08:07:32;147945.91;;;14.88;53.80
5780;BME280;2916;49.798;10.022;2023-05-01T08:09:59;147898.59;;;14.69;53.12
5780;BME280;2916;49.798;10.022;2023-05-01T08:12:28;147700.78;;;13.88;53.70
5780;BME280;2916;49.798;10.022;2023-05-01T08:14:56;147784.09;;;14.22;54.78
5780;BME280;2916;49.798;10.022;2023-05-01T08:17:24;147896.13;;;14.68;55.20
5780;BME280;2916;49.798;10.022;2023-05-01T08:19:51;147972.06;;;14.99;54.73
5780;BME280;2916;49.798;10.022;2023-05-01T08:22:21;148080.34;;;15.43;54.83
5780;BME280;2916;49.798;10.022;2023-05-01T08:24:49;148146.38;;;15.70;54.92
5780;BME280;2916;49.798;10.022;2023-05-01T08:27:16;148232.31;;;16.06;54.35
5780;BME280;2916;49.798;10.022;2023-05-01T08:29:43;147978.28;;;15.02;53.55
5780;BME280;2916;49.798;10.022;2023-05-01T08:32:11;147914.81;;;14.76;53.57
5780;BME280;2916;49.798;10.022;2023-05-01T08:34:39;147826.41;;;14.39;53.85
5780;BME280;2916;49.798;10.022;2023-05-01T08:37:06;147887.41;;;14.64;53.76
5780;BME280;2916;49.798;10.022;2023-05-01T08:39:34;147872.50;;;14.58;54.54
5780;BME280;2916;49.798;10.022;2023-05-01T08:42:02;147909.81;;;14.73;54.72
5780;BME280;2916;49.798;10.022;2023-05-01T08:44:30;147873.75;;;14.59;53.69
5780;BME280;2916;49.798;10.022;2023-05-01T08:47:09;147715.69;;;13.94;54.23
5780;BME280;2916;49.798;10.022;2023-05-01T08:49:41;147853.84;;;14.51;54.72
5780;BME280;2916;49.798;10.022;2023-05-01T08:52:11;147842.56;;;14.46;55.21
5780;BME280;2916;49.798;10.022;2023-05-01T08:54:42;147887.41;;;14.64;54.42
5780;BME280;2916;49.798;10.022;2023-05-01T08:57:10;147873.75;;;14.59;53.43
5780;BME280;2916;49.798;10.022;2023-05-01T08:59:39;147860.03;;;14.53;54.92
5780;BME280;2916;49.798;10.022;2023-05-01T09:02:08;147777.91;;;14.19;53.99
5780;BME280;2916;49.798;10.022;2023-05-01T09:04:39;147875.00;;;14.59;53.42
5780;BME280;2916;49.798;10.022;2023-05-01T09:07:07;147897.38;;;14.68;55.06
5780;BME280;2916;49.798;10.022;2023-05-01T09:09:34;147851.31;;;14.49;55.44
5780;BME280;2916;49.798;10.022;2023-05-01T09:12:11;147990.72;;;15.07;57.41
5780;BME280;2916;49.798;10.022;2023-05-01T09:14:41;147922.28;;;14.79;55.19
5780;BME280;2916;49.798;10.022;2023-05-01T09:17:08;147913.56;;;14.75;56.85
5780;BME280;2916;49.798;10.022;2023-05-01T09:19:44;148003.16;;;15.12;57.68
5780;BME280;2916;49.798;10.022;2023-05-01T09:22:21;147873.75;;;14.59;56.90
5780;BME280;2916;49.798;10.022;2023-05-01T09:24:48;147967.06;;;14.97;54.99
5780;BME280;2916;49.798;10.022;2023-05-01T09:27:16;147791.56;;;14.25;55.65
5780;BME280;2916;49.798;10.022;2023-05-01T09:29:45;147835.13;;;14.43;55.42
5780;BME280;2916;49.798;10.022;2023-05-01T09:32:15;147943.44;;;14.87;55.93
5780;BME280;2916;49.798;10.022;2023-05-01T09:34:46;148039.28;;;15.27;56.79
5780;BME280;2916;49.798;10.022;2023-05-01T09:37:26;148049.22;;;15.31;56.68
5780;BME280;2916;49.798;10.022;2023-05-01T09:40:04;147927.22;;;14.81;54.87
5780;BME280;2916;49.798;10.022;2023-05-01T09:42:32;147973.28;;;15.00;55.67
5780;BME280;2916;49.798;10.022;2023-05-01T09:45:01;148052.94;;;15.32;56.87
5780;BME280;2916;49.798;10.022;2023-05-01T09:47:29;147990.72;;;15.07;54.64
5780;BME280;2916;49.798;10.022;2023-05-01T09:50:00;148009.41;;;15.14;55.74
5780;BME280;2916;49.798;10.022;2023-05-01T09:52:27;148005.63;;;15.13;54.76
5780;BME280;2916;49.798;10.022;2023-05-01T09:55:15;148092.81;;;15.49;56.50
5780;BME280;2916;49.798;10.022;2023-05-01T09:57:45;148071.63;;;15.40;56.12
5780;BME280;2916;49.798;10.022;2023-05-01T10:00:17;148061.66;;;15.36;56.27
5780;BME280;2916;49.798;10.022;2023-05-01T10:02:49;147945.91;;;14.88;55.86
5780;BME280;2916;49.798;10.022;2023-05-01T10:05:18;147897.38;;;14.68;55.85
5780;BME280;2916;49.798;10.022;2023-05-01T10:07:57;148011.88;;;15.15;58.32
5780;BME280;2916;49.798;10.022;2023-05-01T10:10:25;148061.66;;;15.36;57.85
5780;BME280;2916;49.798;10.022;2023-05-01T10:12:52;148051.72;;;15.32;58.46
5780;BME280;2916;49.798;10.022;2023-05-01T10:15:20;148033.03;;;15.24;58.67
5780;BME280;2916;49.798;10.022;2023-05-01T10:17:49;147847.56;;;14.48;57.49
5780;BME280;2916;49.798;10.022;2023-05-01T10:20:19;147964.56;;;14.96;58.38
5780;BME280;2916;49.798;10.022;2023-05-01T10:22:46;148006.91;;;15.13;57.66
5780;BME280;2916;49.798;10.022;2023-05-01T10:25:15;148099.03;;;15.51;59.77
5780;BME280;2916;49.798;10.022;2023-05-01T10:27:42;148136.44;;;15.66;60.96
5780;BME280;2916;49.798;10.022;2023-05-01T10:30:10;148024.31;;;15.20;56.71
5780;BME280;2916;49.798;10.022;2023-05-01T10:32:39;147955.84;;;14.92;56.39
5780;BME280;2916;49.798;10.022;2023-05-01T10:35:14;147978.28;;;15.02;58.23
5780;BME280;2916;49.798;10.022;2023-05-01T10:37:48;147926.00;;;14.80;58.24
5780;BME280;2916;49.798;10.022;2023-05-01T10:40:46;147933.47;;;14.83;58.33
5780;BME280;2916;49.798;10.022;2023-05-01T10:43:16;147939.72;;;14.86;59.00
5780;BME280;2916;49.798;10.022;2023-05-01T10:45:46;147897.38;;;14.68;59.88
5780;BME280;2916;49.798;10.022;2023-05-01T10:48:57;147852.56;;;14.50;58.79
5780;BME280;2916;49.798;10.022;2023-05-01T10:51:25;147815.22;;;14.35;59.29
5780;BME280;2916;49.798;10.022;2023-05-01T10:54:26;147852.56;;;14.50;60.21
5780;BME280;2916;49.798;10.022;2023-05-01T10:56:56;147799.03;;;14.28;60.92
5780;BME280;2916;49.798;10.022;2023-05-01T10:59:26;147794.03;;;14.26;60.71
5780;BME280;2916;49.798;10.022;2023-05-01T11:01:53;147772.91;;;14.17;60.89
5780;BME280;2916;49.798;10.022;2023-05-01T11:04:49;147733.09;;;14.01;62.10
5780;BME280;2916;49.798;10.022;2023-05-01T11:07:20;147659.69;;;13.71;62.50
5780;BME280;2916;49.798;10.022;2023-05-01T11:09:50;147672.16;;;13.76;61.88
5780;BME280;2916;49.798;10.022;2023-05-01T11:12:49;147736.81;;;14.03;61.81
5780;BME280;2916;49.798;10.022;2023-05-01T11:15:31;147674.66;;;13.77;62.25
5780;BME280;2916;49.798;10.022;2023-05-01T11:17:59;147679.59;;;13.79;62.85
5780;BME280;2916;49.798;10.022;2023-05-01T11:20:49;147555.25;;;13.28;61.70
5780;BME280;2916;49.798;10.022;2023-05-01T11:23:21;147665.94;;;13.73;60.86
5780;BME280;2916;49.798;10.022;2023-05-01T11:26:03;147623.69;;;13.56;61.51
5780;BME280;2916;49.798;10.022;2023-05-01T11:28:31;147623.69;;;13.56;62.25
5780;BME280;2916;49.798;10.022;2023-05-01T11:30:59;147611.22;;;13.51;63.37
5780;BME280;2916;49.798;10.022;2023-05-01T11:33:28;147636.09;;;13.61;63.01
5780;BME280;2916;49.798;10.022;2023-05-01T11:36:00;147613.72;;;13.52;63.45
5780;BME280;2916;49.798;10.022;2023-05-01T11:38:28;147578.91;;;13.38;63.50
5780;BME280;2916;49.798;10.022;2023-05-01T11:40:59;147590.06;;;13.42;64.18
5780;BME280;2916;49.798;10.022;2023-05-01T11:43:28;147567.72;;;13.33;65.42
5780;BME280;2916;49.798;10.022;2023-05-01T11:45:56;147546.59;;;13.24;65.82
5780;BME280;2916;49.798;10.022;2023-05-01T11:48:29;147575.19;;;13.36;65.86
5780;BME280;2916;49.798;10.022;2023-05-01T11:50:57;147565.19;;;13.32;65.71
5780;BME280;2916;49.798;10.022;2023-05-01T11:53:24;147554.00;;;13.27;66.17
5780;BME280;2916;49.798;10.022;2023-05-01T11:55:52;147597.56;;;13.45;65.22
5780;BME280;2916;49.798;10.022;2023-05-01T11:58:33;147572.66;;;13.35;64.97
5780;BME280;2916;49.798;10.022;2023-05-01T12:01:02;147365.06;;;12.50;65.25
5780;BME280;2916;49.798;10.022;2023-05-01T12:03:40;147662.22;;;13.72;66.71
5780;BME280;2916;49.798;10.022;2023-05-01T12:06:10;147509.25;;;13.09;63.91
5780;BME280;2916;49.798;10.022;2023-05-01T12:08:43;147656.00;;;13.69;64.80
5780;BME280;2916;49.798;10.022;2023-05-01T12:11:15;147641.03;;;13.63;64.49
5780;BME280;2916;49.798;10.022;2023-05-01T12:13:44;147663.47;;;13.72;64.99
5780;BME280;2916;49.798;10.022;2023-05-01T12:16:12;147682.13;;;13.80;64.63
5780;BME280;2916;49.798;10.022;2023-05-01T12:18:41;147714.44;;;13.93;64.54
5780;BME280;2916;49.798;10.022;2023-05-01T12:21:15;147649.75;;;13.67;64.34
5780;BME280;2916;49.798;10.022;2023-05-01T12:23:43;147698.25;;;13.87;65.92
5780;BME280;2916;49.798;10.022;2023-05-01T12:26:18;147760.47;;;14.12;64.93
5780;BME280;2916;49.798;10.022;2023-05-01T12:28:55;147780.38;;;14.20;64.13
5780;BME280;2916;49.798;10.022;2023-05-01T12:31:23;147762.94;;;14.13;64.07
5780;BME280;2916;49.798;10.022;2023-05-01T12:33:55;147711.97;;;13.92;64.93
5780;BME280;2916;49.798;10.022;2023-05-01T12:36:25;147766.72;;;14.15;65.84
5780;BME280;2916;49.798;10.022;2023-05-01T12:38:55;147813.94;;;14.34;63.97
5780;BME280;2916;49.798;10.022;2023-05-01T12:41:32;147775.38;;;14.18;63.82
5780;BME280;2916;49.798;10.022;2023-05-01T12:44:02;147902.38;;;14.70;65.69
5780;BME280;2916;49.798;10.022;2023-05-01T12:46:29;147957.09;;;14.93;65.32
5780;BME280;2916;49.798;10.022;2023-05-01T12:48:56;148004.41;;;15.12;64.12
5780;BME280;2916;49.798;10.022;2023-05-01T12:51:24;147996.97;;;15.09;63.54
5780;BME280;2916;49.798;10.022;2023-05-01T12:53:53;148041.75;;;15.28;64.03
5780;BME280;2916;49.798;10.022;2023-05-01T12:56:23;148079.09;;;15.43;63.37
5780;BME280;2916;49.798;10.022;2023-05-01T12:58:52;148106.50;;;15.54;64.53
5780;BME280;2916;49.798;10.022;2023-05-01T13:01:25;148116.47;;;15.58;63.71
5780;BME280;2916;49.798;10.022;2023-05-01T13:03:53;148131.41;;;15.64;60.99
5780;BME280;2916;49.798;10.022;2023-05-01T13:06:30;148026.84;;;15.21;61.32
5780;BME280;2916;49.798;10.022;2023-05-01T13:09:08;148046.75;;;15.30;62.69
5780;BME280;2916;49.798;10.022;2023-05-01T13:11:36;148161.34;;;15.77;61.13
5780;BME280;2916;49.798;10.022;2023-05-01T13:14:08;147919.78;;;14.78;60.79
5780;BME280;2916;49.798;10.022;2023-05-01T13:16:45;148024.31;;;15.20;62.08
5780;BME280;2916;49.798;10.022;2023-05-01T13:19:13;148178.78;;;15.84;61.04
5780;BME280;2916;49.798;10.022;2023-05-01T13:21:50;148029.31;;;15.22;61.21